Time;durP1;ratioP1;P1;durP2;ratioP2;P2;SDS_P1;SDS_P2;PMS_P1;PMS_P2;Temp;Humidity;BMP_temperature;BMP_pressure;BME280_temperature;BME280_humidity;BME280_pressure;Samples;Min_cycle;Max_cycle;Signal;HPM_P1;HPM_P2
2022/09/10 00:03:21;;;;;;;22.13;14.80;;;;;;;20.44;100.00;100107.44;5059463;22;20018;-86
2022/09/10 00:11:22;;;;;;;21.55;14.85;;;;;;;20.47;100.00;100109.66;4869307;26;20041;-85
2022/09/10 00:13:57;;;;;;;22.90;15.23;;;;;;;20.38;100.00;100118.31;5031208;28;20401;-85
2022/09/10 00:16:54;;;;;;;21.08;14.02;;;;;;;20.34;100.00;100119.84;5009987;28;20053;-85
2022/09/10 00:20:12;;;;;;;21.92;14.90;;;;;;;20.41;100.00;100120.53;5010648;28;20045;-85
2022/09/10 00:23:31;;;;;;;22.67;14.80;;;;;;;20.38;100.00;100127.19;4997499;28;20078;-85
2022/09/10 00:26:14;;;;;;;18.05;13.50;;;;;;;20.45;100.00;100140.56;4973176;28;20054;-86
2022/09/10 00:29:03;;;;;;;16.95;11.75;;;;;;;20.39;100.00;100154.94;4994335;28;20037;-84
2022/09/10 00:31:51;;;;;;;20.25;12.50;;;;;;;20.52;100.00;100157.38;5002869;28;20058;-89
2022/09/10 00:34:26;;;;;;;15.48;10.98;;;;;;;20.50;100.00;100146.88;5032642;28;20021;-88
2022/09/10 00:36:52;;;;;;;21.52;11.52;;;;;;;20.56;100.00;100158.56;5031969;28;20049;-86
2022/09/10 00:39:46;;;;;;;14.88;10.25;;;;;;;20.65;100.00;100157.13;5032965;28;20090;-87
2022/09/10 00:43:03;;;;;;;13.70;9.20;;;;;;;20.66;100.00;100177.63;5033515;28;20086;-85
2022/09/10 00:45:32;;;;;;;;;;;;;;;20.63;100.00;100188.88;5031694;28;20050;-88
2022/09/10 00:48:36;;;;;;;17.75;10.00;;;;;;;20.41;100.00;100196.75;5032966;28;19921;-87
2022/09/10 00:54:20;;;;;;;15.50;10.90;;;;;;;20.56;100.00;100213.22;3149519;26;20122;-84
2022/09/10 00:57:01;;;;;;;17.40;10.65;;;;;;;20.60;100.00;100200.94;5028790;28;20105;-85
2022/09/10 00:59:47;;;;;;;17.77;10.07;;;;;;;20.72;100.00;100198.22;5032290;28;20056;-85
2022/09/10 01:03:02;;;;;;;17.98;10.35;;;;;;;20.78;100.00;100207.25;5032410;28;20428;-86
2022/09/10 01:05:34;;;;;;;17.27;10.48;;;;;;;20.89;100.00;100214.47;5033686;28;20064;-87
2022/09/10 01:08:20;;;;;;;14.45;10.25;;;;;;;20.88;100.00;100216.34;5018729;28;20076;-85
2022/09/10 01:11:27;;;;;;;14.40;8.98;;;;;;;20.95;100.00;100208.97;5028782;28;20122;-85
2022/09/10 01:14:24;;;;;;;11.02;8.27;;;;;;;20.86;100.00;100214.97;5032246;28;20034;-88
2022/09/10 01:17:56;;;;;;;16.55;8.30;;;;;;;20.59;100.00;100203.84;5036524;28;20032;-85
2022/09/10 01:20:59;;;;;;;13.63;9.35;;;;;;;20.52;100.00;100224.69;5035867;28;20026;-84
2022/09/10 01:23:53;;;;;;;16.23;8.57;;;;;;;20.55;100.00;100226.91;5023936;28;20044;-84
2022/09/10 01:26:50;;;;;;;15.65;7.85;;;;;;;20.49;100.00;100222.47;5012816;28;20073;-83
2022/09/10 01:30:11;;;;;;;16.00;9.20;;;;;;;20.38;100.00;100234.06;5018407;28;20054;-85
2022/09/10 01:33:00;;;;;;;12.55;7.85;;;;;;;20.42;100.00;100230.66;5018400;28;20081;-84
2022/09/10 01:36:08;;;;;;;15.77;8.98;;;;;;;20.49;100.00;100234.06;5012927;28;20034;-84
2022/09/10 01:38:54;;;;;;;13.53;7.87;;;;;;;20.28;100.00;100223.88;5016551;28;20089;-91
2022/09/10 01:41:26;;;;;;;12.50;8.82;;;;;;;20.29;100.00;100232.75;5014241;28;20034;-83
2022/09/10 01:43:57;;;;;;;14.15;8.35;;;;;;;20.31;100.00;100217.22;5014352;28;20045;-83
2022/09/10 01:46:49;;;;;;;15.43;8.35;;;;;;;20.34;100.00;100219.44;5017967;28;20054;-86
2022/09/10 01:56:03;;;;;;;25.05;9.55;;;;;;;20.19;100.00;100213.63;4146054;26;20045;-82
2022/09/10 01:58:56;;;;;;;10.82;8.35;;;;;;;20.09;100.00;100209.66;5027627;28;20045;-83
2022/09/10 02:01:47;;;;;;;17.15;9.73;;;;;;;19.92;100.00;100205.97;5044121;28;20113;-83
2022/09/10 02:04:23;;;;;;;17.13;8.63;;;;;;;19.98;100.00;100207.78;5037452;28;20037;-83
2022/09/10 02:06:55;;;;;;;16.60;8.70;;;;;;;19.92;100.00;100214.06;5037145;28;20103;-80
2022/09/10 02:12:44;;;;;;;21.25;8.73;;;;;;;19.75;100.00;100206.88;5028425;28;20508;-86
2022/09/10 02:15:40;;;;;;;11.38;8.73;;;;;;;19.75;100.00;100207.72;5027069;28;20046;-83
2022/09/10 02:18:34;;;;;;;17.35;8.73;;;;;;;19.56;100.00;100203.41;5029491;28;20072;-85
2022/09/10 02:21:22;;;;;;;17.85;9.77;;;;;;;19.52;100.00;100202.25;5030131;28;20124;-83
2022/09/10 02:23:56;;;;;;;12.55;9.07;;;;;;;19.61;100.00;100195.50;5031794;28;20084;-86
2022/09/10 02:26:24;;;;;;;17.77;9.45;;;;;;;19.53;100.00;100187.75;5032175;28;20092;-83
2022/09/10 02:28:55;;;;;;;16.98;9.68;;;;;;;19.44;100.00;100199.88;5032636;28;20500;-84
2022/09/10 02:31:34;;;;;;;16.75;9.68;;;;;;;19.48;100.00;100190.31;5031878;28;20041;-84
2022/09/10 02:34:27;;;;;;;17.83;10.20;;;;;;;19.40;100.00;100194.13;5030287;28;20046;-82
2022/09/10 02:37:03;;;;;;;14.57;9.23;;;;;;;19.41;100.00;100195.78;5032391;28;20281;-83
2022/09/10 02:40:00;;;;;;;17.35;10.18;;;;;;;19.48;100.00;100187.63;5015035;28;20034;-84
2022/09/10 02:42:39;;;;;;;19.23;10.23;;;;;;;19.44;100.00;100189.13;5022981;28;20114;-86
2022/09/10 02:45:09;;;;;;;14.00;9.68;;;;;;;19.43;100.00;100184.78;5030737;28;20092;-82
2022/09/10 02:47:35;;;;;;;19.60;10.48;;;;;;;19.33;100.00;100168.34;5026776;28;20065;-84
2022/09/10 02:50:12;;;;;;;17.92;10.48;;;;;;;19.24;100.00;100173.22;5031548;28;20026;-82
2022/09/10 02:52:44;;;;;;;18.30;10.82;;;;;;;19.29;100.00;100175.25;5031393;28;20034;-84
2022/09/10 02:55:44;;;;;;;16.15;11.00;;;;;;;19.29;100.00;100180.63;5031599;28;20061;-87
2022/09/10 02:58:18;;;;;;;23.88;12.85;;;;;;;19.32;100.00;100180.16;5023663;28;20071;-84
2022/09/10 03:00:48;;;;;;;18.10;13.32;;;;;;;19.18;100.00;100178.69;5032867;28;20446;-85
2022/09/10 03:03:59;;;;;;;24.45;13.98;;;;;;;19.14;100.00;100185.56;5033526;28;20042;-85
2022/09/10 03:06:26;;;;;;;22.30;14.57;;;;;;;19.21;100.00;100189.81;5034534;28;20057;-84
2022/09/10 03:08:56;;;;;;;25.95;14.23;;;;;;;19.25;100.00;100196.38;5033833;28;20064;-86
2022/09/10 03:11:40;;;;;;;23.98;14.95;;;;;;;19.25;100.00;100199.06;5032802;28;20393;-84
2022/09/10 03:14:29;;;;;;;22.00;14.07;;;;;;;19.27;100.00;100206.88;5017732;28;20121;-86
2022/09/10 03:17:09;;;;;;;23.55;14.48;;;;;;;19.17;100.00;100201.22;5033233;28;20053;-87
2022/09/10 03:22:48;;;;;;;23.17;16.00;;;;;;;19.10;100.00;100202.13;4259261;26;20046;-84
2022/09/10 03:25:28;;;;;;;19.70;14.57;;;;;;;19.03;100.00;100209.44;5031215;28;20033;-85
2022/09/10 03:28:42;;;;;;;28.90;17.17;;;;;;;19.06;100.00;100202.78;5013690;28;20204;-87
2022/09/10 03:31:31;;;;;;;26.15;16.77;;;;;;;19.06;100.00;100208.16;4987612;28;20042;-83
2022/09/10 03:34:00;;;;;;;26.02;16.58;;;;;;;19.05;100.00;100218.13;5010317;28;20050;-83
2022/09/10 03:36:30;;;;;;;22.98;16.10;;;;;;;19.07;100.00;100221.38;5003610;28;20046;-84
2022/09/10 03:39:48;;;;;;;24.83;16.02;;;;;;;19.08;100.00;100217.66;4999195;28;20046;-85
2022/09/10 03:42:19;;;;;;;;;;;;;;;19.07;100.00;100215.19;5010588;28;20050;-86
2022/09/10 03:45:31;;;;;;;25.27;15.95;;;;;;;19.19;100.00;100223.34;5076104;23;19928;-85
2022/09/10 03:48:10;;;;;;;23.30;16.58;;;;;;;19.22;100.00;100228.25;5033085;28;20097;-87
2022/09/10 03:51:14;;;;;;;21.30;15.43;;;;;;;19.30;100.00;100226.06;5034326;28;20068;-84
2022/09/10 03:54:41;;;;;;;23.48;16.15;;;;;;;19.38;100.00;100227.63;5035209;28;20021;-86
2022/09/10 03:57:41;;;;;;;22.48;14.45;;;;;;;19.39;100.00;100229.28;5042899;23;20034;-83
2022/09/10 04:00:18;;;;;;;27.67;13.93;;;;;;;19.38;100.00;100219.56;5035890;28;20021;-84
2022/09/10 04:03:01;;;;;;;19.92;13.50;;;;;;;19.34;100.00;100229.13;5036259;28;20092;-85
2022/09/10 04:05:31;;;;;;;25.52;15.18;;;;;;;19.30;100.00;100227.94;5035495;28;20042;-83
2022/09/10 04:08:01;;;;;;;24.58;15.10;;;;;;;19.25;100.00;100225.94;5020343;28;20100;-86
2022/09/10 04:11:26;;;;;;;24.00;15.13;;;;;;;19.19;100.00;100223.34;5003164;28;20049;-84
2022/09/10 04:14:00;;;;;;;24.15;14.45;;;;;;;19.24;100.00;100220.78;5035986;28;20112;-83
2022/09/10 04:16:37;;;;;;;25.48;14.90;;;;;;;19.22;100.00;100222.88;5031738;28;20504;-84
2022/09/10 04:19:43;;;;;;;22.08;14.98;;;;;;;19.17;100.00;100214.66;5034928;28;20073;-85
2022/09/10 04:25:13;;;;;;;22.85;14.18;;;;;;;19.23;100.00;100228.00;4685861;26;20057;-87
2022/09/10 04:27:54;;;;;;;21.10;14.75;;;;;;;19.16;100.00;100221.09;5053701;28;20040;-85
2022/09/10 04:30:39;;;;;;;24.58;15.07;;;;;;;19.24;100.00;100215.41;5053808;28;20463;-85
2022/09/10 04:36:16;;;;;;;20.67;14.68;;;;;;;19.24;100.00;100220.78;5003449;26;20069;-88
2022/09/10 04:39:13;;;;;;;25.02;15.13;;;;;;;19.24;100.00;100226.16;5038518;28;20076;-87
2022/09/10 04:47:59;;;;;;;26.48;17.17;;;;;;;19.18;100.00;100221.69;4758682;26;20062;-88
2022/09/10 04:51:12;;;;;;;29.05;18.40;;;;;;;19.19;100.00;100212.59;5032203;28;20052;-86
2022/09/10 04:54:24;;;;;;;26.60;17.58;;;;;;;19.17;100.00;100217.34;5032366;28;20045;-88
2022/09/10 04:57:35;;;;;;;27.48;18.48;;;;;;;19.15;100.00;100220.28;5033598;28;20058;-86
2022/09/10 05:23:55;;;;;;;24.48;15.95;;;;;;;19.69;100.00;100222.06;5034171;28;20052;-90
2022/09/10 05:27:40;;;;;;;28.48;16.02;;;;;;;19.85;100.00;100229.47;5150592;22;20072;-89
2022/09/10 05:34:17;;;;;;;18.83;14.30;;;;;;;19.98;100.00;100234.69;3063647;22;20053;-90
2022/09/10 05:42:41;;;;;;;26.02;15.13;;;;;;;20.37;100.00;100243.19;5065268;23;20026;-87
2022/09/10 05:45:17;;;;;;;22.45;12.80;;;;;;;20.65;100.00;100240.59;5035030;28;20033;-84
2022/09/10 05:47:58;;;;;;;21.05;13.48;;;;;;;21.23;100.00;100239.75;5034305;28;20183;-87
2022/09/10 05:56:19;;;;;;;17.10;12.75;;;;;;;21.24;100.00;100244.09;4764894;26;20046;-86
2022/09/10 05:59:12;;;;;;;24.58;14.23;;;;;;;21.23;100.00;100243.28;5037183;28;20417;-84
2022/09/10 06:02:16;;;;;;;21.70;13.80;;;;;;;21.23;100.00;100254.06;5035747;28;20061;-86
2022/09/10 06:04:55;;;;;;;27.40;14.75;;;;;;;21.43;100.00;100250.97;5036082;28;20041;-88
2022/09/10 06:07:22;;;;;;;24.33;14.85;;;;;;;21.86;100.00;100259.34;5003637;28;20050;-86
2022/09/10 06:09:54;;;;;;;26.85;14.80;;;;;;;21.85;100.00;100252.31;5009982;28;20046;-87
2022/09/10 06:12:53;;;;;;;23.13;14.93;;;;;;;22.64;100.00;100263.91;5017815;28;20070;-88
2022/09/10 06:16:14;;;;;;;30.50;15.85;;;;;;;21.92;100.00;100263.81;5017458;28;20081;-87
2022/09/10 06:18:49;;;;;;;32.08;17.52;;;;;;;21.95;100.00;100268.72;5033396;23;20049;-85
2022/09/10 06:24:24;;;;;;;26.90;18.40;;;;;;;22.66;100.00;100275.34;5059755;23;20066;-90
2022/09/10 06:27:22;;;;;;;36.35;17.45;;;;;;;22.50;100.00;100270.72;5034564;28;20065;-89
2022/09/10 06:33:34;;;;;;;32.67;19.63;;;;;;;22.97;100.00;100277.41;5077892;23;20046;-90
2022/09/10 06:36:51;;;;;;;29.05;20.08;;;;;;;23.20;100.00;100280.97;5146889;23;20054;-90
2022/09/10 06:42:48;;;;;;;39.13;21.38;;;;;;;22.57;100.00;100287.59;5107349;23;20046;-88
2022/09/10 06:48:26;;;;;;;36.10;22.52;;;;;;;22.58;100.00;100281.09;2583021;26;20046;-90
2022/09/10 07:36:39;;;;;;;24.95;16.77;;;;;;;25.81;97.73;100292.38;5060400;22;20042;-87
2022/09/10 07:52:14;;;;;;;29.48;14.07;;;;;;;26.24;91.69;100312.06;5039697;28;19952;-87
2022/09/10 07:55:06;;;;;;;23.95;12.55;;;;;;;25.83;93.85;100311.94;5000649;28;20046;-88
2022/09/10 07:57:57;;;;;;;25.90;11.68;;;;;;;26.00;89.70;100312.53;4991550;28;20100;-85
2022/09/10 08:01:10;;;;;;;19.98;13.13;;;;;;;25.65;93.85;100309.72;4998924;28;20103;-84
2022/09/10 08:04:25;;;;;;;20.95;13.75;;;;;;;25.91;94.18;100316.03;5016224;28;20065;-84
2022/09/10 08:10:12;;;;;;;18.70;12.00;;;;;;;26.93;86.01;100326.75;4909587;26;20026;-89
2022/09/10 08:16:30;;;;;;;16.30;12.15;;;;;;;27.37;86.82;100334.28;5034807;28;20116;-84
2022/09/10 08:19:38;;;;;;;24.67;13.80;;;;;;;27.57;87.26;100326.88;5091891;23;20036;-88
2022/09/10 08:22:25;;;;;;;21.20;12.35;;;;;;;27.53;88.00;100335.88;5034813;28;20048;-90
2022/09/10 08:25:26;;;;;;;22.90;13.68;;;;;;;27.63;87.13;100335.84;5037341;28;20069;-89
2022/09/10 08:28:14;;;;;;;17.50;11.98;;;;;;;27.44;87.66;100354.69;5037128;28;20041;-88
2022/09/10 08:31:21;;;;;;;19.35;12.68;;;;;;;27.83;86.61;100354.81;5020420;28;20044;-86
2022/09/10 08:33:56;;;;;;;18.35;11.48;;;;;;;27.69;86.99;100357.31;5032133;28;20037;-86
2022/09/10 08:36:24;;;;;;;16.98;10.50;;;;;;;27.94;87.69;100361.81;5017215;28;20397;-83
2022/09/10 08:38:50;;;;;;;15.35;9.60;;;;;;;28.34;83.89;100362.72;5009293;28;20034;-84
2022/09/10 08:41:37;;;;;;;16.17;10.02;;;;;;;28.59;81.09;100365.25;5042956;28;20030;-86
2022/09/10 08:44:12;;;;;;;17.63;8.82;;;;;;;28.68;79.23;100363.56;5025107;28;20034;-85
2022/09/10 08:47:01;;;;;;;15.57;10.18;;;;;;;28.43;79.14;100366.47;5030147;28;20041;-86
2022/09/10 08:50:12;;;;;;;12.68;9.10;;;;;;;27.91;80.36;100381.44;5030457;28;20061;-84
2022/09/10 08:53:05;;;;;;;11.80;8.38;;;;;;;28.05;80.34;100373.47;4996531;28;20046;-84
2022/09/10 08:56:02;;;;;;;15.00;7.97;;;;;;;27.96;79.08;100376.00;5032932;28;20460;-85
2022/09/10 08:59:04;;;;;;;15.48;7.82;;;;;;;27.00;83.70;100387.13;5024767;28;20061;-85
2022/09/10 09:01:58;;;;;;;12.13;7.57;;;;;;;27.16;82.84;100385.19;5034162;28;20022;-87
2022/09/10 09:04:54;;;;;;;10.43;7.53;;;;;;;28.08;78.58;100375.69;5028029;28;20038;-85
2022/09/10 09:07:40;;;;;;;17.42;8.00;;;;;;;28.48;77.16;100369.16;5033808;28;20029;-85
2022/09/10 09:10:51;;;;;;;13.23;7.47;;;;;;;28.55;74.85;100369.66;5035325;28;20033;-87
2022/09/10 09:13:36;;;;;;;12.40;5.75;;;;;;;29.41;65.89;100377.09;5032949;28;20061;-90
2022/09/10 09:19:28;;;;;;;10.85;5.65;;;;;;;29.67;63.08;100378.44;4760998;26;20046;-86
2022/09/10 09:22:32;;;;;;;9.45;5.10;;;;;;;30.27;58.33;100390.50;5039381;28;20079;-89
2022/09/10 09:25:46;;;;;;;8.32;5.05;;;;;;;30.12;59.34;100382.53;5060589;23;20046;-87
2022/09/10 09:28:33;;;;;;;8.95;3.97;;;;;;;30.00;58.62;100387.59;4988921;28;20034;-82
2022/09/10 09:31:25;;;;;;;6.85;4.07;;;;;;;28.81;62.37;100381.19;4987293;28;20091;-86
2022/09/10 09:34:59;;;;;;;11.07;4.55;;;;;;;28.92;62.79;100372.66;4996808;28;20155;-87
2022/09/10 09:37:33;;;;;;;6.78;4.15;;;;;;;29.05;62.62;100376.63;4986168;28;20094;-87
2022/09/10 09:40:31;;;;;;;4.70;2.70;;;;;;;29.87;60.27;100375.47;4990469;28;20047;-85
2022/09/10 09:43:36;;;;;;;5.05;2.33;;;;;;;30.65;59.29;100378.47;4981237;28;20047;-86
2022/09/10 09:49:38;;;;;;;7.97;4.03;;;;;;;29.98;59.20;100371.50;5050950;23;20055;-87
2022/09/10 09:52:57;;;;;;;8.40;2.97;;;;;;;29.90;60.35;100380.34;5012779;28;20040;-87
2022/09/10 09:55:46;;;;;;;7.13;3.17;;;;;;;29.89;59.61;100375.19;5013446;28;20041;-87
2022/09/10 09:59:01;;;;;;;6.25;2.55;;;;;;;29.69;59.20;100366.13;5014329;28;20035;-89
2022/09/10 10:02:24;;;;;;;11.25;2.15;;;;;;;30.49;58.09;100354.41;5003560;28;20077;-88
2022/09/10 10:05:26;;;;;;;7.25;2.00;;;;;;;30.89;53.44;100359.16;5013892;28;20456;-86
2022/09/10 10:08:13;;;;;;;6.05;2.92;;;;;;;30.91;52.65;100359.69;5012252;28;20042;-87
2022/09/10 10:11:53;;;;;;;6.43;1.95;;;;;;;29.88;53.71;100366.19;5011738;28;20073;-90
2022/09/10 10:23:00;;;;;;;7.78;2.05;;;;;;;31.44;48.44;100353.81;4101970;26;20038;-88
2022/09/10 10:25:51;;;;;;;5.00;1.88;;;;;;;31.68;47.86;100354.44;4983795;28;20090;-86
2022/09/10 10:28:52;;;;;;;7.80;1.42;;;;;;;31.54;44.56;100354.47;5004812;28;20049;-87
2022/09/10 10:32:31;;;;;;;2.05;1.13;;;;;;;32.38;41.70;100349.34;5014860;28;20045;-90
2022/09/10 10:35:21;;;;;;;2.55;0.90;;;;;;;32.19;40.20;100349.50;5015731;28;20030;-91
2022/09/10 10:38:21;;;;;;;2.35;1.00;;;;;;;31.87;40.37;100351.56;5011549;28;20046;-87
2022/09/10 10:41:41;;;;;;;3.80;1.52;;;;;;;31.75;41.79;100339.19;5009339;28;20056;-90
2022/09/10 10:45:25;;;;;;;4.80;0.90;;;;;;;32.22;39.33;100337.91;5030747;28;20092;-89
2022/09/10 10:48:51;;;;;;;5.05;1.40;;;;;;;31.63;40.94;100338.09;4958318;29;20270;-88
2022/09/10 10:52:13;;;;;;;8.18;1.60;;;;;;;31.33;41.37;100330.47;5040972;23;20150;-90
2022/09/10 10:55:28;;;;;;;4.65;1.30;;;;;;;32.38;39.00;100323.84;5059024;23;20058;-89
2022/09/10 10:59:05;;;;;;;2.55;1.17;;;;;;;32.23;39.74;100323.06;5027311;28;20053;-86
2022/09/10 11:01:53;;;;;;;4.40;1.23;;;;;;;32.15;40.09;100326.53;4996771;28;20035;-83
2022/09/10 11:04:25;;;;;;;;;;;;;;;31.54;40.51;100315.28;4993833;28;20121;-82
2022/09/10 11:07:17;;;;;;;4.68;1.10;;;;;;;30.40;43.71;100301.44;4994410;28;19921;-82
2022/09/10 11:09:49;;;;;;;9.63;1.50;;;;;;;30.66;43.01;100306.22;4992995;28;20069;-88
2022/09/10 11:12:24;;;;;;;4.60;1.10;;;;;;;31.68;40.64;100305.13;4995799;28;20046;-82
2022/09/10 11:15:12;;;;;;;2.90;0.82;;;;;;;32.60;38.99;100302.72;5002301;28;20026;-81
2022/09/10 11:17:52;;;;;;;8.82;1.35;;;;;;;32.91;37.94;100297.25;4998012;28;20153;-85
2022/09/10 11:20:31;;;;;;;8.60;1.35;;;;;;;33.07;37.51;100303.94;4990353;28;20022;-86
2022/09/10 11:23:13;;;;;;;4.35;1.15;;;;;;;33.71;37.33;100296.06;4992852;28;20053;-85
2022/09/10 11:25:43;;;;;;;;;;;;;;;33.84;35.15;100300.63;5007117;28;20041;-84
2022/09/10 11:28:18;;;;;;;6.63;1.70;;;;;;;33.62;35.19;100298.00;5011121;28;19930;-85
2022/09/10 11:30:51;;;;;;;9.80;1.58;;;;;;;32.94;36.65;100288.38;4998287;28;20042;-85
2022/09/10 11:33:23;;;;;;;5.88;1.15;;;;;;;33.52;35.64;100292.78;4992608;28;20034;-83
2022/09/10 11:36:08;;;;;;;7.03;1.00;;;;;;;32.36;36.88;100288.47;4992454;28;20125;-84
2022/09/10 11:38:39;;;;;;;4.53;1.10;;;;;;;32.08;37.73;100292.47;4992503;28;20074;-85
2022/09/10 11:41:14;;;;;;;7.07;0.90;;;;;;;32.57;36.95;100284.13;4996159;28;20057;-84
2022/09/10 11:44:13;;;;;;;2.60;1.17;;;;;;;33.25;35.86;100289.16;5007823;28;20041;-83
2022/09/10 11:47:23;;;;;;;5.45;0.93;;;;;;;32.60;36.63;100294.47;4999217;28;20026;-86
2022/09/10 12:04:03;;;;;;;3.72;1.02;;;;;;;28.77;46.97;100257.41;2574794;23;20049;-86
2022/09/10 12:07:13;;;;;;;5.65;1.25;;;;;;;28.71;47.88;100253.91;5037355;28;20056;-89
2022/09/10 12:21:15;;;;;;;4.40;1.00;;;;;;;28.56;47.33;100233.03;5047924;23;20034;-85
2022/09/10 12:28:08;;;;;;;7.13;1.25;;;;;;;28.02;48.82;100230.47;5036763;28;20028;-86
2022/09/10 12:36:38;;;;;;;3.40;1.10;;;;;;;27.94;49.71;100211.97;4499679;23;20042;-84
2022/09/10 12:39:40;;;;;;;2.90;0.88;;;;;;;27.78;50.13;100213.19;5042182;28;20042;-84
2022/09/10 12:45:37;;;;;;;12.00;1.63;;;;;;;28.20;49.16;100205.28;983847;26;20318;-85
2022/09/10 12:48:16;;;;;;;8.13;1.50;;;;;;;28.20;48.80;100199.03;5033015;28;20038;-86
2022/09/10 12:59:16;;;;;;;7.05;0.90;;;;;;;27.41;49.42;100180.97;3285133;26;20105;-82
2022/09/10 13:02:17;;;;;;;11.52;1.02;;;;;;;27.33;50.84;100178.88;5014726;28;20039;-87
2022/09/10 13:05:26;;;;;;;10.57;1.27;;;;;;;27.40;50.41;100167.69;4999645;28;20042;-87
2022/09/10 13:08:30;;;;;;;7.60;1.10;;;;;;;27.66;49.38;100167.25;5013216;28;20014;-84
2022/09/10 13:11:18;;;;;;;6.63;1.17;;;;;;;27.82;49.18;100167.94;5008724;28;20050;-84
2022/09/10 13:14:21;;;;;;;7.65;1.23;;;;;;;27.74;49.57;100163.91;5011686;28;20043;-83
2022/09/10 13:17:34;;;;;;;11.15;1.35;;;;;;;27.55;49.10;100164.88;5015474;28;20029;-84
2022/09/10 13:20:29;;;;;;;9.20;1.17;;;;;;;27.45;49.70;100157.59;5007203;28;20049;-86
2022/09/10 13:23:14;;;;;;;8.68;1.40;;;;;;;27.55;49.19;100162.16;5016359;28;20065;-85
2022/09/10 13:25:46;;;;;;;4.45;1.20;;;;;;;27.23;49.74;100154.44;5017149;28;20034;-84
2022/09/10 13:29:00;;;;;;;11.00;1.73;;;;;;;27.39;50.23;100157.88;5017506;28;20041;-84
2022/09/10 13:35:34;;;;;;;4.75;1.10;;;;;;;27.55;51.40;100154.81;5098326;23;20049;-86
2022/09/10 13:38:45;;;;;;;6.72;1.08;;;;;;;27.81;50.42;100158.16;5013435;28;20045;-85
2022/09/10 13:42:11;;;;;;;5.78;1.10;;;;;;;28.01;49.83;100155.25;5007786;28;20051;-84
2022/09/10 13:45:51;;;;;;;4.78;1.15;;;;;;;28.08;51.33;100146.78;5015217;28;20109;-86
2022/09/10 13:48:52;;;;;;;6.97;1.80;;;;;;;27.75;50.29;100137.50;4983791;28;20043;-86
2022/09/10 13:52:04;;;;;;;7.35;1.83;;;;;;;27.92;49.91;100132.47;4974021;28;20059;-84
2022/09/10 13:55:04;;;;;;;8.50;3.78;;;;;;;28.03;49.46;100125.03;4887735;29;20061;-84
2022/09/10 13:57:59;;;;;;;10.07;1.90;;;;;;;28.06;49.85;100133.47;4872998;29;20057;-83
2022/09/10 14:01:12;;;;;;;6.15;2.30;;;;;;;28.04;48.45;100123.94;4884184;29;20057;-82
2022/09/10 14:04:02;;;;;;;7.97;1.60;;;;;;;27.88;48.88;100120.50;4880864;29;20045;-83
2022/09/10 14:15:35;;;;;;;7.00;1.45;;;;;;;28.09;48.69;100121.16;5063965;23;20041;-83
2022/09/10 14:19:08;;;;;;;6.80;1.80;;;;;;;27.90;48.89;100109.34;5024018;28;20118;-83
2022/09/10 14:21:42;;;;;;;6.40;1.50;;;;;;;27.61;49.38;100109.28;5016821;28;20029;-83
2022/09/10 14:24:27;;;;;;;5.82;1.13;;;;;;;27.65;50.71;100104.91;5004027;28;20047;-85
2022/09/10 14:27:15;;;;;;;8.32;1.95;;;;;;;27.73;50.38;100107.03;5006124;28;20050;-83
2022/09/10 14:29:41;;;;;;;6.60;1.33;;;;;;;27.44;49.93;100104.25;5002410;28;20084;-86
2022/09/10 14:32:21;;;;;;;8.60;1.48;;;;;;;27.44;50.52;100095.28;5002859;28;20061;-86
2022/09/10 14:34:47;;;;;;;6.22;1.92;;;;;;;27.59;50.41;100100.59;5008785;28;20087;-86
2022/09/10 14:37:25;;;;;;;10.02;1.95;;;;;;;27.56;50.35;100101.16;5016439;28;20034;-88
2022/09/10 14:39:50;;;;;;;6.68;1.58;;;;;;;27.51;51.10;100090.34;5017205;28;20036;-89
2022/09/10 14:42:26;;;;;;;3.15;1.25;;;;;;;27.68;51.19;100091.53;5015883;28;20041;-85
2022/09/10 14:44:52;;;;;;;8.95;1.20;;;;;;;27.81;50.87;100086.53;5016581;28;20076;-85
2022/09/10 14:47:49;;;;;;;8.75;1.38;;;;;;;27.85;49.97;100088.38;5017625;28;20072;-89
2022/09/10 14:50:31;;;;;;;7.05;1.30;;;;;;;27.86;49.81;100089.22;5022249;28;20042;-85
2022/09/10 14:52:57;;;;;;;10.38;1.63;;;;;;;27.80;49.75;100084.91;5013857;28;20022;-86
2022/09/10 14:55:27;;;;;;;5.65;1.20;;;;;;;27.62;49.85;100084.50;5015475;28;20461;-84
2022/09/10 14:57:54;;;;;;;5.72;1.70;;;;;;;27.68;50.18;100088.81;5003213;28;20082;-84
2022/09/10 15:00:21;;;;;;;5.72;1.42;;;;;;;27.54;50.79;100085.09;4996497;28;20042;-84
2022/09/10 15:02:49;;;;;;;6.35;1.40;;;;;;;27.35;51.37;100084.13;5014653;28;20084;-84
2022/09/10 15:05:19;;;;;;;5.35;1.65;;;;;;;27.42;52.15;100078.38;5016240;28;20069;-84
2022/09/10 15:07:46;;;;;;;4.65;1.38;;;;;;;27.50;51.72;100075.09;5016752;28;20045;-83
2022/09/10 15:10:12;;;;;;;5.57;1.48;;;;;;;27.45;50.94;100075.09;4999969;28;20038;-86
2022/09/10 15:12:44;;;;;;;5.55;1.10;;;;;;;27.46;51.03;100074.84;4999183;28;20045;-83
2022/09/10 15:15:14;;;;;;;9.80;1.55;;;;;;;27.58;50.87;100071.75;5003721;28;20042;-83
2022/09/10 15:17:40;;;;;;;7.38;1.40;;;;;;;27.71;50.49;100076.53;5014745;28;20088;-85
2022/09/10 15:20:11;;;;;;;5.47;1.50;;;;;;;27.51;50.68;100074.00;5013025;28;20026;-88
2022/09/10 15:22:36;;;;;;;4.97;1.45;;;;;;;27.47;50.41;100070.22;5022801;28;20109;-91
2022/09/10 15:25:03;;;;;;;4.50;1.30;;;;;;;27.50;50.91;100072.38;5026490;28;20061;-90
2022/09/10 15:27:29;;;;;;;7.90;1.20;;;;;;;27.42;50.41;100073.75;5007791;28;20477;-88
2022/09/10 15:29:56;;;;;;;4.15;1.38;;;;;;;27.45;51.23;100072.38;4991267;28;20108;-88
2022/09/10 15:32:23;;;;;;;13.30;4.50;;;;;;;27.54;51.44;100076.16;5010493;28;20033;-88
2022/09/10 15:34:55;;;;;;;14.73;3.53;;;;;;;27.48;53.18;100071.81;5009402;28;20623;-91
2022/09/10 15:37:21;;;;;;;8.80;2.35;;;;;;;27.31;53.85;100065.94;5005966;28;20100;-88
2022/09/10 15:39:47;;;;;;;3.58;1.33;;;;;;;27.39;54.00;100068.06;5018909;28;20072;-87
2022/09/10 15:42:13;;;;;;;7.40;1.83;;;;;;;27.33;54.55;100069.19;5018296;28;20129;-88
2022/09/10 15:44:39;;;;;;;6.65;1.85;;;;;;;27.18;53.84;100060.03;4997738;28;20085;-86
2022/09/10 15:47:05;;;;;;;13.02;1.75;;;;;;;27.12;54.07;100063.06;4995494;28;20046;-87
2022/09/10 15:49:34;;;;;;;8.30;2.78;;;;;;;27.16;53.27;100064.13;5000713;28;20089;-87
2022/09/10 15:52:05;;;;;;;6.95;1.83;;;;;;;27.13;53.39;100070.97;4996721;28;20058;-87
2022/09/10 15:54:32;;;;;;;11.35;1.63;;;;;;;27.16;53.33;100062.22;4996948;28;20115;-88
2022/09/10 15:56:59;;;;;;;6.00;1.42;;;;;;;27.29;52.99;100070.84;4996551;28;20035;-85
2022/09/10 15:59:24;;;;;;;10.90;1.80;;;;;;;27.26;53.98;100063.25;4996960;28;20030;-87
2022/09/10 16:01:52;;;;;;;6.88;1.38;;;;;;;27.16;54.47;100064.94;4998332;28;20385;-87
2022/09/10 16:04:21;;;;;;;4.95;1.60;;;;;;;27.05;54.20;100057.13;5002158;28;20037;-87
2022/09/10 16:06:52;;;;;;;8.80;1.70;;;;;;;27.07;55.17;100058.50;5017251;28;20034;-90
2022/09/10 16:09:24;;;;;;;6.57;1.40;;;;;;;27.00;55.39;100066.16;5001303;28;20121;-90
2022/09/10 16:11:54;;;;;;;4.47;1.60;;;;;;;26.99;54.85;100064.50;5002496;28;20033;-90
2022/09/10 16:14:25;;;;;;;9.60;1.50;;;;;;;27.05;55.27;100062.56;5001022;28;20038;-91
2022/09/10 16:17:00;;;;;;;5.43;1.33;;;;;;;27.22;53.70;100058.38;5003576;28;20030;-94
2022/09/10 16:19:25;;;;;;;11.07;1.60;;;;;;;27.15;55.13;100055.16;5001328;28;20042;-90
2022/09/10 16:21:52;;;;;;;5.45;2.08;;;;;;;27.14;56.15;100056.28;5002730;28;20038;-88
2022/09/10 16:24:23;;;;;;;12.95;2.00;;;;;;;27.11;55.77;100054.09;5019501;28;20041;-91
2022/09/10 16:27:01;;;;;;;7.60;1.95;;;;;;;26.99;55.93;100053.63;5023384;28;20041;-92
2022/09/10 16:30:25;;;;;;;5.65;1.65;;;;;;;27.09;55.46;100052.75;5029269;28;20034;-91
2022/09/10 16:41:18;;;;;;;9.30;1.90;;;;;;;27.00;55.74;100055.25;1288778;26;20046;-93
2022/09/10 16:46:38;;;;;;;10.70;1.58;;;;;;;27.06;55.33;100061.47;5111766;23;20141;-92